sensor_id;sensor_type;location;lat;lon;timestamp;P1;durP1;ratioP1;P2;durP2;ratioP2
7575;SDS011;3829;50.798;4.358;2023-09-18T00:02:24;10.63;;;5.27;;
7575;SDS011;3829;50.798;4.358;2023-09-18T00:04:50;5.83;;;5.10;;
7575;SDS011;3829;50.798;4.358;2023-09-18T00:07:15;9.13;;;5.23;;
7575;SDS011;3829;50.798;4.358;2023-09-18T00:09:41;8.87;;;5.27;;
7575;SDS011;3829;50.798;4.358;2023-09-18T00:12:07;8.30;;;5.13;;
7575;SDS011;3829;50.798;4.358;2023-09-18T00:14:32;8.73;;;5.27;;
7575;SDS011;3829;50.798;4.358;2023-09-18T00:16:58;7.87;;;5.20;;
7575;SDS011;3829;50.798;4.358;2023-09-18T00:19:24;8.73;;;4.70;;
7575;SDS011;3829;50.798;4.358;2023-09-18T00:21:50;10.37;;;4.73;;
7575;SDS011;3829;50.798;4.358;2023-09-18T00:24:17;7.37;;;4.77;;
7575;SDS011;3829;50.798;4.358;2023-09-18T00:26:43;7.10;;;5.07;;
7575;SDS011;3829;50.798;4.358;2023-09-18T00:29:08;9.53;;;5.37;;
7575;SDS011;3829;50.798;4.358;2023-09-18T00:31:34;11.27;;;5.77;;
7575;SDS011;3829;50.798;4.358;2023-09-18T00:33:59;7.07;;;5.47;;
7575;SDS011;3829;50.798;4.358;2023-09-18T00:36:25;8.13;;;5.47;;
7575;SDS011;3829;50.798;4.358;2023-09-18T00:38:50;8.60;;;5.43;;
7575;SDS011;3829;50.798;4.358;2023-09-18T00:41:16;10.87;;;5.67;;
7575;SDS011;3829;50.798;4.358;2023-09-18T00:43:41;12.20;;;5.67;;
7575;SDS011;3829;50.798;4.358;2023-09-18T00:46:07;10.67;;;6.53;;
7575;SDS011;3829;50.798;4.358;2023-09-18T00:48:33;12.00;;;6.27;;
7575;SDS011;3829;50.798;4.358;2023-09-18T00:50:59;9.40;;;6.43;;
7575;SDS011;3829;50.798;4.358;2023-09-18T00:53:25;11.43;;;6.70;;
7575;SDS011;3829;50.798;4.358;2023-09-18T00:55:52;11.47;;;6.37;;
7575;SDS011;3829;50.798;4.358;2023-09-18T00:58:20;10.07;;;5.90;;
7575;SDS011;3829;50.798;4.358;2023-09-18T01:00:46;8.77;;;6.43;;
7575;SDS011;3829;50.798;4.358;2023-09-18T01:03:15;9.53;;;6.33;;
7575;SDS011;3829;50.798;4.358;2023-09-18T01:05:43;9.13;;;6.43;;
7575;SDS011;3829;50.798;4.358;2023-09-18T01:08:09;10.40;;;6.03;;
7575;SDS011;3829;50.798;4.358;2023-09-18T01:10:38;8.87;;;6.27;;
7575;SDS011;3829;50.798;4.358;2023-09-18T01:13:13;9.50;;;6.27;;
7575;SDS011;3829;50.798;4.358;2023-09-18T01:15:48;11.63;;;7.00;;
7575;SDS011;3829;50.798;4.358;2023-09-18T01:18:19;10.70;;;6.47;;
7575;SDS011;3829;50.798;4.358;2023-09-18T01:20:44;8.37;;;6.70;;
7575;SDS011;3829;50.798;4.358;2023-09-18T01:23:10;9.20;;;6.23;;
7575;SDS011;3829;50.798;4.358;2023-09-18T01:25:36;9.77;;;6.67;;
7575;SDS011;3829;50.798;4.358;2023-09-18T01:28:02;9.97;;;6.90;;
7575;SDS011;3829;50.798;4.358;2023-09-18T01:30:28;12.10;;;6.47;;
7575;SDS011;3829;50.798;4.358;2023-09-18T01:32:54;9.57;;;6.40;;
7575;SDS011;3829;50.798;4.358;2023-09-18T01:35:23;12.87;;;7.23;;
7575;SDS011;3829;50.798;4.358;2023-09-18T01:37:55;15.90;;;6.53;;
7575;SDS011;3829;50.798;4.358;2023-09-18T01:40:21;8.47;;;6.50;;
7575;SDS011;3829;50.798;4.358;2023-09-18T01:42:49;7.90;;;6.20;;
7575;SDS011;3829;50.798;4.358;2023-09-18T01:45:15;12.23;;;6.60;;
7575;SDS011;3829;50.798;4.358;2023-09-18T01:47:40;9.60;;;5.80;;
7575;SDS011;3829;50.798;4.358;2023-09-18T01:50:06;8.40;;;5.90;;
7575;SDS011;3829;50.798;4.358;2023-09-18T01:52:32;8.63;;;6.13;;
7575;SDS011;3829;50.798;4.358;2023-09-18T01:54:59;8.53;;;6.53;;
7575;SDS011;3829;50.798;4.358;2023-09-18T01:57:25;9.07;;;7.20;;
7575;SDS011;3829;50.798;4.358;2023-09-18T01:59:50;9.83;;;6.00;;
7575;SDS011;3829;50.798;4.358;2023-09-18T02:02:16;9.27;;;6.33;;
7575;SDS011;3829;50.798;4.358;2023-09-18T02:04:42;10.00;;;6.73;;
7575;SDS011;3829;50.798;4.358;2023-09-18T02:07:08;11.77;;;6.67;;
7575;SDS011;3829;50.798;4.358;2023-09-18T02:09:34;12.97;;;7.10;;
7575;SDS011;3829;50.798;4.358;2023-09-18T02:12:00;6.93;;;6.20;;
7575;SDS011;3829;50.798;4.358;2023-09-18T02:14:25;12.30;;;7.43;;
7575;SDS011;3829;50.798;4.358;2023-09-18T02:16:51;10.73;;;6.73;;
7575;SDS011;3829;50.798;4.358;2023-09-18T02:19:17;9.33;;;6.50;;
7575;SDS011;3829;50.798;4.358;2023-09-18T02:21:43;10.80;;;6.87;;
7575;SDS011;3829;50.798;4.358;2023-09-18T02:24:09;18.07;;;6.83;;
7575;SDS011;3829;50.798;4.358;2023-09-18T02:26:34;11.30;;;6.90;;
7575;SDS011;3829;50.798;4.358;2023-09-18T02:29:01;7.70;;;6.63;;
7575;SDS011;3829;50.798;4.358;2023-09-18T02:31:29;10.80;;;6.10;;
7575;SDS011;3829;50.798;4.358;2023-09-18T02:33:55;8.40;;;6.10;;
7575;SDS011;3829;50.798;4.358;2023-09-18T02:36:21;8.43;;;6.07;;
7575;SDS011;3829;50.798;4.358;2023-09-18T02:38:46;10.03;;;5.50;;
7575;SDS011;3829;50.798;4.358;2023-09-18T02:41:12;9.23;;;5.90;;
7575;SDS011;3829;50.798;4.358;2023-09-18T02:43:37;5.53;;;4.93;;
7575;SDS011;3829;50.798;4.358;2023-09-18T02:46:03;8.77;;;4.77;;
7575;SDS011;3829;50.798;4.358;2023-09-18T02:48:30;7.33;;;4.60;;
7575;SDS011;3829;50.798;4.358;2023-09-18T02:50:56;6.77;;;4.60;;
7575;SDS011;3829;50.798;4.358;2023-09-18T02:53:23;6.33;;;4.20;;
7575;SDS011;3829;50.798;4.358;2023-09-18T02:55:50;7.93;;;4.53;;
7575;SDS011;3829;50.798;4.358;2023-09-18T02:58:18;6.03;;;3.93;;
7575;SDS011;3829;50.798;4.358;2023-09-18T03:00:46;7.33;;;4.07;;
7575;SDS011;3829;50.798;4.358;2023-09-18T03:03:13;5.67;;;4.30;;
7575;SDS011;3829;50.798;4.358;2023-09-18T03:05:40;7.43;;;3.70;;
7575;SDS011;3829;50.798;4.358;2023-09-18T03:08:06;5.30;;;3.83;;
7575;SDS011;3829;50.798;4.358;2023-09-18T03:10:32;6.13;;;4.03;;
7575;SDS011;3829;50.798;4.358;2023-09-18T03:12:59;7.10;;;3.77;;
7575;SDS011;3829;50.798;4.358;2023-09-18T03:15:25;5.33;;;3.33;;
7575;SDS011;3829;50.798;4.358;2023-09-18T03:17:51;5.97;;;3.23;;
7575;SDS011;3829;50.798;4.358;2023-09-18T03:20:16;4.47;;;3.37;;
7575;SDS011;3829;50.798;4.358;2023-09-18T03:22:42;5.70;;;3.47;;
7575;SDS011;3829;50.798;4.358;2023-09-18T03:25:08;5.37;;;3.90;;
7575;SDS011;3829;50.798;4.358;2023-09-18T03:27:33;8.73;;;3.80;;
7575;SDS011;3829;50.798;4.358;2023-09-18T03:29:59;6.13;;;3.43;;
7575;SDS011;3829;50.798;4.358;2023-09-18T03:32:24;9.23;;;3.80;;
7575;SDS011;3829;50.798;4.358;2023-09-18T03:34:50;7.90;;;3.53;;
7575;SDS011;3829;50.798;4.358;2023-09-18T03:37:17;9.03;;;4.13;;
7575;SDS011;3829;50.798;4.358;2023-09-18T03:39:42;10.27;;;4.03;;
7575;SDS011;3829;50.798;4.358;2023-09-18T03:42:08;7.80;;;4.50;;
7575;SDS011;3829;50.798;4.358;2023-09-18T03:44:34;6.23;;;4.53;;
7575;SDS011;3829;50.798;4.358;2023-09-18T03:47:00;8.57;;;4.73;;
7575;SDS011;3829;50.798;4.358;2023-09-18T03:49:27;8.90;;;4.93;;
7575;SDS011;3829;50.798;4.358;2023-09-18T03:51:53;10.03;;;4.73;;
7575;SDS011;3829;50.798;4.358;2023-09-18T03:54:18;7.63;;;4.57;;
7575;SDS011;3829;50.798;4.358;2023-09-18T03:56:44;11.63;;;4.77;;
7575;SDS011;3829;50.798;4.358;2023-09-18T03:59:11;8.07;;;4.30;;
7575;SDS011;3829;50.798;4.358;2023-09-18T04:01:37;6.17;;;3.83;;
7575;SDS011;3829;50.798;4.358;2023-09-18T04:04:02;6.13;;;3.87;;
7575;SDS011;3829;50.798;4.358;2023-09-18T04:06:35;10.43;;;4.27;;
7575;SDS011;3829;50.798;4.358;2023-09-18T04:09:02;6.57;;;3.40;;
7575;SDS011;3829;50.798;4.358;2023-09-18T04:11:28;8.07;;;3.70;;
7575;SDS011;3829;50.798;4.358;2023-09-18T04:13:57;9.70;;;3.93;;
7575;SDS011;3829;50.798;4.358;2023-09-18T04:16:24;6.93;;;3.80;;
7575;SDS011;3829;50.798;4.358;2023-09-18T04:18:50;7.07;;;3.90;;
7575;SDS011;3829;50.798;4.358;2023-09-18T04:21:15;5.23;;;3.27;;
7575;SDS011;3829;50.798;4.358;2023-09-18T04:23:41;5.73;;;2.70;;
7575;SDS011;3829;50.798;4.358;2023-09-18T04:26:06;7.43;;;3.20;;
7575;SDS011;3829;50.798;4.358;2023-09-18T04:28:32;5.77;;;3.03;;
7575;SDS011;3829;50.798;4.358;2023-09-18T04:30:58;5.17;;;2.50;;
7575;SDS011;3829;50.798;4.358;2023-09-18T04:33:23;6.60;;;2.47;;
7575;SDS011;3829;50.798;4.358;2023-09-18T04:35:50;6.33;;;2.53;;
7575;SDS011;3829;50.798;4.358;2023-09-18T04:38:16;4.53;;;2.40;;
7575;SDS011;3829;50.798;4.358;2023-09-18T04:40:42;4.57;;;2.17;;
7575;SDS011;3829;50.798;4.358;2023-09-18T04:43:07;3.60;;;2.10;;
7575;SDS011;3829;50.798;4.358;2023-09-18T04:45:33;2.90;;;1.80;;
7575;SDS011;3829;50.798;4.358;2023-09-18T04:47:59;2.63;;;1.70;;
7575;SDS011;3829;50.798;4.358;2023-09-18T04:50:24;2.60;;;1.77;;
7575;SDS011;3829;50.798;4.358;2023-09-18T04:52:51;6.20;;;2.10;;
7575;SDS011;3829;50.798;4.358;2023-09-18T04:55:19;5.53;;;1.90;;
7575;SDS011;3829;50.798;4.358;2023-09-18T04:57:45;3.30;;;2.00;;
7575;SDS011;3829;50.798;4.358;2023-09-18T05:00:10;4.00;;;1.87;;
7575;SDS011;3829;50.798;4.358;2023-09-18T05:02:38;3.13;;;1.90;;
7575;SDS011;3829;50.798;4.358;2023-09-18T05:05:05;3.97;;;2.00;;
7575;SDS011;3829;50.798;4.358;2023-09-18T05:07:34;2.67;;;1.80;;
7575;SDS011;3829;50.798;4.358;2023-09-18T05:10:00;4.60;;;2.30;;
7575;SDS011;3829;50.798;4.358;2023-09-18T05:12:25;4.67;;;3.13;;
7575;SDS011;3829;50.798;4.358;2023-09-18T05:14:51;3.23;;;2.03;;
7575;SDS011;3829;50.798;4.358;2023-09-18T05:17:17;2.63;;;1.70;;
7575;SDS011;3829;50.798;4.358;2023-09-18T05:19:43;5.33;;;2.30;;
7575;SDS011;3829;50.798;4.358;2023-09-18T05:22:09;2.23;;;1.70;;
7575;SDS011;3829;50.798;4.358;2023-09-18T05:24:36;7.77;;;2.27;;
7575;SDS011;3829;50.798;4.358;2023-09-18T05:27:03;3.07;;;1.80;;
7575;SDS011;3829;50.798;4.358;2023-09-18T05:29:31;5.93;;;2.00;;
7575;SDS011;3829;50.798;4.358;2023-09-18T05:31:56;4.50;;;2.17;;
7575;SDS011;3829;50.798;4.358;2023-09-18T05:34:22;4.13;;;2.10;;
7575;SDS011;3829;50.798;4.358;2023-09-18T05:36:47;5.83;;;2.37;;
7575;SDS011;3829;50.798;4.358;2023-09-18T05:39:13;4.70;;;1.90;;
7575;SDS011;3829;50.798;4.358;2023-09-18T05:41:39;5.77;;;1.97;;
7575;SDS011;3829;50.798;4.358;2023-09-18T05:44:05;4.70;;;2.33;;
7575;SDS011;3829;50.798;4.358;2023-09-18T05:46:34;6.07;;;2.43;;
7575;SDS011;3829;50.798;4.358;2023-09-18T05:49:01;2.97;;;2.10;;
7575;SDS011;3829;50.798;4.358;2023-09-18T05:51:28;2.57;;;2.10;;
7575;SDS011;3829;50.798;4.358;2023-09-18T05:53:54;3.37;;;2.20;;
7575;SDS011;3829;50.798;4.358;2023-09-18T05:56:20;4.27;;;2.60;;
7575;SDS011;3829;50.798;4.358;2023-09-18T05:58:46;4.07;;;2.10;;
7575;SDS011;3829;50.798;4.358;2023-09-18T06:01:11;3.73;;;1.93;;
7575;SDS011;3829;50.798;4.358;2023-09-18T06:03:37;9.70;;;2.43;;
7575;SDS011;3829;50.798;4.358;2023-09-18T06:06:03;5.23;;;2.27;;
7575;SDS011;3829;50.798;4.358;2023-09-18T06:08:30;3.23;;;2.30;;
7575;SDS011;3829;50.798;4.358;2023-09-18T06:10:56;3.23;;;2.13;;
7575;SDS011;3829;50.798;4.358;2023-09-18T06:13:24;4.83;;;2.30;;
7575;SDS011;3829;50.798;4.358;2023-09-18T06:15:50;3.73;;;2.73;;
7575;SDS011;3829;50.798;4.358;2023-09-18T06:18:17;5.13;;;2.23;;
7575;SDS011;3829;50.798;4.358;2023-09-18T06:20:45;7.03;;;2.33;;
7575;SDS011;3829;50.798;4.358;2023-09-18T06:23:11;6.10;;;2.40;;
7575;SDS011;3829;50.798;4.358;2023-09-18T06:25:37;2.40;;;2.20;;
7575;SDS011;3829;50.798;4.358;2023-09-18T06:28:03;5.57;;;2.53;;
7575;SDS011;3829;50.798;4.358;2023-09-18T06:30:29;3.00;;;2.33;;
7575;SDS011;3829;50.798;4.358;2023-09-18T06:32:56;2.60;;;2.40;;
7575;SDS011;3829;50.798;4.358;2023-09-18T06:35:21;6.00;;;2.40;;
7575;SDS011;3829;50.798;4.358;2023-09-18T06:37:47;3.07;;;2.00;;
7575;SDS011;3829;50.798;4.358;2023-09-18T06:40:13;6.37;;;2.57;;
7575;SDS011;3829;50.798;4.358;2023-09-18T06:42:38;4.33;;;2.37;;
7575;SDS011;3829;50.798;4.358;2023-09-18T06:45:04;5.13;;;2.67;;
7575;SDS011;3829;50.798;4.358;2023-09-18T06:47:32;3.07;;;2.30;;
7575;SDS011;3829;50.798;4.358;2023-09-18T06:49:58;5.70;;;2.40;;
7575;SDS011;3829;50.798;4.358;2023-09-18T06:52:25;5.73;;;2.47;;
7575;SDS011;3829;50.798;4.358;2023-09-18T06:54:51;4.63;;;3.13;;
7575;SDS011;3829;50.798;4.358;2023-09-18T06:57:17;6.83;;;3.10;;
7575;SDS011;3829;50.798;4.358;2023-09-18T06:59:43;3.60;;;3.10;;
7575;SDS011;3829;50.798;4.358;2023-09-18T07:02:09;7.77;;;2.93;;
7575;SDS011;3829;50.798;4.358;2023-09-18T07:04:35;8.63;;;3.23;;
7575;SDS011;3829;50.798;4.358;2023-09-18T07:07:02;7.40;;;3.00;;
7575;SDS011;3829;50.798;4.358;2023-09-18T07:09:28;6.83;;;3.00;;
7575;SDS011;3829;50.798;4.358;2023-09-18T07:11:53;10.43;;;3.30;;
7575;SDS011;3829;50.798;4.358;2023-09-18T07:14:19;5.23;;;2.80;;
7575;SDS011;3829;50.798;4.358;2023-09-18T07:16:45;8.87;;;3.07;;
7575;SDS011;3829;50.798;4.358;2023-09-18T07:19:10;9.83;;;3.20;;
7575;SDS011;3829;50.798;4.358;2023-09-18T07:21:41;6.03;;;2.53;;
7575;SDS011;3829;50.798;4.358;2023-09-18T07:24:07;3.23;;;2.43;;
7575;SDS011;3829;50.798;4.358;2023-09-18T07:26:33;4.90;;;2.50;;
7575;SDS011;3829;50.798;4.358;2023-09-18T07:28:58;9.10;;;2.80;;
7575;SDS011;3829;50.798;4.358;2023-09-18T07:31:24;3.20;;;2.77;;
7575;SDS011;3829;50.798;4.358;2023-09-18T07:33:50;4.17;;;2.87;;
7575;SDS011;3829;50.798;4.358;2023-09-18T07:36:16;8.00;;;3.17;;
7575;SDS011;3829;50.798;4.358;2023-09-18T07:38:42;5.23;;;2.97;;
7575;SDS011;3829;50.798;4.358;2023-09-18T07:41:08;6.57;;;2.63;;
7575;SDS011;3829;50.798;4.358;2023-09-18T07:43:34;4.17;;;2.47;;
7575;SDS011;3829;50.798;4.358;2023-09-18T07:45:59;5.23;;;2.80;;
7575;SDS011;3829;50.798;4.358;2023-09-18T07:48:26;4.63;;;2.90;;
7575;SDS011;3829;50.798;4.358;2023-09-18T07:50:52;3.20;;;2.90;;
7575;SDS011;3829;50.798;4.358;2023-09-18T07:53:19;4.70;;;2.57;;
7575;SDS011;3829;50.798;4.358;2023-09-18T07:55:47;5.90;;;2.50;;
7575;SDS011;3829;50.798;4.358;2023-09-18T07:58:13;6.57;;;3.07;;
7575;SDS011;3829;50.798;4.358;2023-09-18T08:00:39;5.43;;;2.83;;
7575;SDS011;3829;50.798;4.358;2023-09-18T08:03:05;6.77;;;2.80;;
7575;SDS011;3829;50.798;4.358;2023-09-18T08:05:30;4.83;;;2.47;;
7575;SDS011;3829;50.798;4.358;2023-09-18T08:07:56;8.10;;;2.83;;
7575;SDS011;3829;50.798;4.358;2023-09-18T08:10:24;5.67;;;3.00;;
7575;SDS011;3829;50.798;4.358;2023-09-18T08:12:50;5.57;;;3.00;;
7575;SDS011;3829;50.798;4.358;2023-09-18T08:15:18;8.50;;;3.03;;
7575;SDS011;3829;50.798;4.358;2023-09-18T08:17:45;6.00;;;2.50;;
7575;SDS011;3829;50.798;4.358;2023-09-18T08:20:11;4.87;;;2.73;;
7575;SDS011;3829;50.798;4.358;2023-09-18T08:22:40;3.30;;;2.57;;
7575;SDS011;3829;50.798;4.358;2023-09-18T08:25:07;7.97;;;2.80;;
7575;SDS011;3829;50.798;4.358;2023-09-18T08:27:36;3.97;;;3.00;;
7575;SDS011;3829;50.798;4.358;2023-09-18T08:30:05;4.67;;;2.67;;
7575;SDS011;3829;50.798;4.358;2023-09-18T08:32:31;7.10;;;3.33;;
7575;SDS011;3829;50.798;4.358;2023-09-18T08:34:58;4.63;;;3.13;;
7575;SDS011;3829;50.798;4.358;2023-09-18T08:37:26;5.23;;;3.17;;
7575;SDS011;3829;50.798;4.358;2023-09-18T08:39:52;5.03;;;3.43;;
7575;SDS011;3829;50.798;4.358;2023-09-18T08:42:17;7.27;;;3.20;;
7575;SDS011;3829;50.798;4.358;2023-09-18T08:44:45;6.90;;;2.87;;
7575;SDS011;3829;50.798;4.358;2023-09-18T08:47:14;5.03;;;2.90;;
7575;SDS011;3829;50.798;4.358;2023-09-18T08:49:40;5.53;;;3.20;;
7575;SDS011;3829;50.798;4.358;2023-09-18T08:52:07;5.60;;;2.80;;
7575;SDS011;3829;50.798;4.358;2023-09-18T08:54:33;3.37;;;2.80;;
7575;SDS011;3829;50.798;4.358;2023-09-18T08:56:59;6.47;;;3.33;;
7575;SDS011;3829;50.798;4.358;2023-09-18T08:59:25;6.77;;;3.80;;
7575;SDS011;3829;50.798;4.358;2023-09-18T09:01:52;5.93;;;3.37;;
7575;SDS011;3829;50.798;4.358;2023-09-18T09:04:18;6.67;;;3.53;;
7575;SDS011;3829;50.798;4.358;2023-09-18T09:06:44;6.40;;;3.20;;
7575;SDS011;3829;50.798;4.358;2023-09-18T09:09:09;4.47;;;3.43;;
7575;SDS011;3829;50.798;4.358;2023-09-18T09:11:38;6.77;;;4.50;;
7575;SDS011;3829;50.798;4.358;2023-09-18T09:14:11;7.57;;;3.93;;
7575;SDS011;3829;50.798;4.358;2023-09-18T09:16:50;7.77;;;3.70;;
7575;SDS011;3829;50.798;4.358;2023-09-18T09:19:17;5.90;;;4.13;;
7575;SDS011;3829;50.798;4.358;2023-09-18T09:21:43;5.77;;;3.83;;
7575;SDS011;3829;50.798;4.358;2023-09-18T09:24:10;9.00;;;3.90;;
7575;SDS011;3829;50.798;4.358;2023-09-18T09:26:39;7.03;;;3.90;;
7575;SDS011;3829;50.798;4.358;2023-09-18T09:29:14;4.30;;;3.47;;
7575;SDS011;3829;50.798;4.358;2023-09-18T09:31:43;7.87;;;3.90;;
7575;SDS011;3829;50.798;4.358;2023-09-18T09:34:09;6.60;;;3.83;;
7575;SDS011;3829;50.798;4.358;2023-09-18T09:36:34;8.07;;;3.80;;
7575;SDS011;3829;50.798;4.358;2023-09-18T09:39:00;6.57;;;3.83;;
7575;SDS011;3829;50.798;4.358;2023-09-18T09:41:29;5.50;;;4.40;;
7575;SDS011;3829;50.798;4.358;2023-09-18T09:43:57;4.93;;;3.60;;
7575;SDS011;3829;50.798;4.358;2023-09-18T09:46:23;6.30;;;3.07;;
7575;SDS011;3829;50.798;4.358;2023-09-18T09:51:27;7.17;;;3.17;;
7575;SDS011;3829;50.798;4.358;2023-09-18T09:53:54;6.87;;;3.93;;
7575;SDS011;3829;50.798;4.358;2023-09-18T09:56:20;8.47;;;3.50;;
7575;SDS011;3829;50.798;4.358;2023-09-18T10:01:30;8.17;;;3.60;;
7575;SDS011;3829;50.798;4.358;2023-09-18T10:03:56;6.43;;;3.83;;
7575;SDS011;3829;50.798;4.358;2023-09-18T10:06:23;12.00;;;3.87;;
7575;SDS011;3829;50.798;4.358;2023-09-18T10:08:50;5.87;;;3.30;;
7575;SDS011;3829;50.798;4.358;2023-09-18T10:11:16;6.40;;;3.27;;
7575;SDS011;3829;50.798;4.358;2023-09-18T10:13:46;6.30;;;3.60;;
7575;SDS011;3829;50.798;4.358;2023-09-18T10:16:22;9.80;;;3.93;;
7575;SDS011;3829;50.798;4.358;2023-09-18T10:19:11;9.83;;;4.10;;
7575;SDS011;3829;50.798;4.358;2023-09-18T10:21:47;7.40;;;4.27;;
7575;SDS011;3829;50.798;4.358;2023-09-18T10:24:24;5.13;;;3.30;;
7575;SDS011;3829;50.798;4.358;2023-09-18T10:26:58;5.93;;;3.23;;
7575;SDS011;3829;50.798;4.358;2023-09-18T10:29:26;5.23;;;2.97;;
7575;SDS011;3829;50.798;4.358;2023-09-18T10:31:53;6.80;;;3.33;;
7575;SDS011;3829;50.798;4.358;2023-09-18T10:34:20;6.77;;;3.47;;
7575;SDS011;3829;50.798;4.358;2023-09-18T10:36:48;4.27;;;3.20;;
7575;SDS011;3829;50.798;4.358;2023-09-18T10:39:14;5.27;;;3.40;;
7575;SDS011;3829;50.798;4.358;2023-09-18T10:41:46;6.57;;;3.30;;
7575;SDS011;3829;50.798;4.358;2023-09-18T10:44:16;6.70;;;3.17;;
7575;SDS011;3829;50.798;4.358;2023-09-18T10:46:44;4.50;;;3.23;;
7575;SDS011;3829;50.798;4.358;2023-09-18T10:49:11;5.13;;;3.10;;
7575;SDS011;3829;50.798;4.358;2023-09-18T10:51:37;7.80;;;3.27;;
7575;SDS011;3829;50.798;4.358;2023-09-18T10:54:07;5.30;;;4.37;;
7575;SDS011;3829;50.798;4.358;2023-09-18T10:56:34;4.90;;;3.10;;
7575;SDS011;3829;50.798;4.358;2023-09-18T10:58:59;7.07;;;3.33;;
7575;SDS011;3829;50.798;4.358;2023-09-18T11:01:27;7.00;;;3.10;;
7575;SDS011;3829;50.798;4.358;2023-09-18T11:03:57;5.77;;;3.10;;
7575;SDS011;3829;50.798;4.358;2023-09-18T11:06:27;4.57;;;3.07;;
7575;SDS011;3829;50.798;4.358;2023-09-18T11:09:02;7.37;;;3.17;;
7575;SDS011;3829;50.798;4.358;2023-09-18T11:11:31;6.97;;;3.07;;
7575;SDS011;3829;50.798;4.358;2023-09-18T11:14:00;6.53;;;4.23;;
7575;SDS011;3829;50.798;4.358;2023-09-18T11:16:35;5.17;;;3.20;;
7575;SDS011;3829;50.798;4.358;2023-09-18T11:19:08;3.90;;;2.80;;
7575;SDS011;3829;50.798;4.358;2023-09-18T11:21:36;4.73;;;2.80;;
7575;SDS011;3829;50.798;4.358;2023-09-18T11:24:05;5.77;;;2.77;;
7575;SDS011;3829;50.798;4.358;2023-09-18T11:26:36;8.23;;;2.60;;
7575;SDS011;3829;50.798;4.358;2023-09-18T11:29:07;3.13;;;2.50;;
7575;SDS011;3829;50.798;4.358;2023-09-18T11:34:16;5.40;;;2.83;;
7575;SDS011;3829;50.798;4.358;2023-09-18T11:36:46;6.60;;;2.50;;
7575;SDS011;3829;50.798;4.358;2023-09-18T11:39:12;3.20;;;2.20;;
7575;SDS011;3829;50.798;4.358;2023-09-18T11:41:39;5.10;;;2.60;;
7575;SDS011;3829;50.798;4.358;2023-09-18T11:46:58;5.00;;;2.57;;
7575;SDS011;3829;50.798;4.358;2023-09-18T11:49:25;3.70;;;2.30;;
7575;SDS011;3829;50.798;4.358;2023-09-18T11:51:52;7.23;;;2.93;;
7575;SDS011;3829;50.798;4.358;2023-09-18T11:54:18;3.93;;;2.40;;
7575;SDS011;3829;50.798;4.358;2023-09-18T11:56:44;4.83;;;2.67;;
7575;SDS011;3829;50.798;4.358;2023-09-18T11:59:10;4.03;;;2.33;;
7575;SDS011;3829;50.798;4.358;2023-09-18T12:01:37;5.97;;;2.70;;
7575;SDS011;3829;50.798;4.358;2023-09-18T12:04:06;4.70;;;2.43;;
7575;SDS011;3829;50.798;4.358;2023-09-18T12:06:34;4.07;;;3.13;;
7575;SDS011;3829;50.798;4.358;2023-09-18T12:09:01;3.50;;;2.40;;
7575;SDS011;3829;50.798;4.358;2023-09-18T12:11:28;4.73;;;2.50;;
7575;SDS011;3829;50.798;4.358;2023-09-18T12:13:55;5.67;;;2.50;;
7575;SDS011;3829;50.798;4.358;2023-09-18T12:16:20;5.00;;;2.43;;
7575;SDS011;3829;50.798;4.358;2023-09-18T12:18:47;3.00;;;2.70;;
7575;SDS011;3829;50.798;4.358;2023-09-18T12:21:14;5.50;;;2.10;;
7575;SDS011;3829;50.798;4.358;2023-09-18T12:23:42;3.73;;;2.47;;
7575;SDS011;3829;50.798;4.358;2023-09-18T12:26:11;2.73;;;2.40;;
7575;SDS011;3829;50.798;4.358;2023-09-18T12:28:38;5.57;;;2.40;;
7575;SDS011;3829;50.798;4.358;2023-09-18T12:31:04;3.57;;;2.43;;
7575;SDS011;3829;50.798;4.358;2023-09-18T12:33:33;3.40;;;2.20;;
7575;SDS011;3829;50.798;4.358;2023-09-18T12:36:01;2.57;;;2.07;;
7575;SDS011;3829;50.798;4.358;2023-09-18T12:38:29;2.30;;;2.10;;
7575;SDS011;3829;50.798;4.358;2023-09-18T12:40:56;3.27;;;2.10;;
7575;SDS011;3829;50.798;4.358;2023-09-18T12:43:25;5.27;;;1.90;;
7575;SDS011;3829;50.798;4.358;2023-09-18T12:45:54;3.63;;;2.00;;
7575;SDS011;3829;50.798;4.358;2023-09-18T12:48:20;4.40;;;2.03;;
7575;SDS011;3829;50.798;4.358;2023-09-18T12:50:51;4.73;;;2.70;;
7575;SDS011;3829;50.798;4.358;2023-09-18T12:53:21;4.90;;;2.40;;
7575;SDS011;3829;50.798;4.358;2023-09-18T12:55:48;2.60;;;2.10;;
7575;SDS011;3829;50.798;4.358;2023-09-18T12:58:18;3.87;;;2.27;;
7575;SDS011;3829;50.798;4.358;2023-09-18T13:00:45;2.63;;;2.30;;
7575;SDS011;3829;50.798;4.358;2023-09-18T13:03:12;3.63;;;1.73;;
7575;SDS011;3829;50.798;4.358;2023-09-18T13:05:38;3.77;;;2.07;;
7575;SDS011;3829;50.798;4.358;2023-09-18T13:08:04;3.77;;;2.30;;
7575;SDS011;3829;50.798;4.358;2023-09-18T13:13:17;4.00;;;2.07;;
7575;SDS011;3829;50.798;4.358;2023-09-18T13:15:44;6.30;;;2.77;;
7575;SDS011;3829;50.798;4.358;2023-09-18T13:18:12;7.57;;;2.43;;
7575;SDS011;3829;50.798;4.358;2023-09-18T13:20:38;3.30;;;2.17;;
7575;SDS011;3829;50.798;4.358;2023-09-18T13:23:05;2.27;;;2.07;;
7575;SDS011;3829;50.798;4.358;2023-09-18T13:25:32;3.40;;;2.00;;
7575;SDS011;3829;50.798;4.358;2023-09-18T13:28:00;2.20;;;1.73;;
7575;SDS011;3829;50.798;4.358;2023-09-18T13:30:28;8.03;;;2.10;;
7575;SDS011;3829;50.798;4.358;2023-09-18T13:33:04;5.73;;;2.00;;
7575;SDS011;3829;50.798;4.358;2023-09-18T13:35:35;7.53;;;2.40;;
7575;SDS011;3829;50.798;4.358;2023-09-18T13:38:03;3.53;;;2.10;;
7575;SDS011;3829;50.798;4.358;2023-09-18T13:40:30;2.90;;;1.90;;
7575;SDS011;3829;50.798;4.358;2023-09-18T13:42:58;2.87;;;1.97;;
7575;SDS011;3829;50.798;4.358;2023-09-18T13:45:24;4.00;;;1.87;;
7575;SDS011;3829;50.798;4.358;2023-09-18T13:47:49;4.90;;;2.20;;
7575;SDS011;3829;50.798;4.358;2023-09-18T13:50:15;4.90;;;2.43;;
7575;SDS011;3829;50.798;4.358;2023-09-18T13:52:41;6.33;;;2.07;;
7575;SDS011;3829;50.798;4.358;2023-09-18T13:55:07;4.37;;;2.00;;
7575;SDS011;3829;50.798;4.358;2023-09-18T13:57:34;3.80;;;1.80;;
7575;SDS011;3829;50.798;4.358;2023-09-18T14:00:00;2.60;;;1.90;;
7575;SDS011;3829;50.798;4.358;2023-09-18T14:02:32;4.27;;;2.10;;
7575;SDS011;3829;50.798;4.358;2023-09-18T14:04:57;3.47;;;2.37;;
7575;SDS011;3829;50.798;4.358;2023-09-18T14:07:23;6.43;;;2.13;;
7575;SDS011;3829;50.798;4.358;2023-09-18T14:09:49;5.80;;;2.13;;
7575;SDS011;3829;50.798;4.358;2023-09-18T14:12:15;5.47;;;1.80;;
7575;SDS011;3829;50.798;4.358;2023-09-18T14:14:41;6.53;;;2.00;;
7575;SDS011;3829;50.798;4.358;2023-09-18T14:17:08;4.83;;;2.00;;
7575;SDS011;3829;50.798;4.358;2023-09-18T14:19:34;3.03;;;1.63;;
7575;SDS011;3829;50.798;4.358;2023-09-18T14:22:00;3.10;;;1.70;;
7575;SDS011;3829;50.798;4.358;2023-09-18T14:24:29;3.77;;;2.00;;
7575;SDS011;3829;50.798;4.358;2023-09-18T14:26:55;2.90;;;2.13;;
7575;SDS011;3829;50.798;4.358;2023-09-18T14:29:21;3.47;;;2.10;;
7575;SDS011;3829;50.798;4.358;2023-09-18T14:31:46;2.73;;;2.10;;
7575;SDS011;3829;50.798;4.358;2023-09-18T14:34:12;5.40;;;2.37;;
7575;SDS011;3829;50.798;4.358;2023-09-18T14:36:38;5.53;;;2.20;;
7575;SDS011;3829;50.798;4.358;2023-09-18T14:39:05;4.50;;;2.20;;
7575;SDS011;3829;50.798;4.358;2023-09-18T14:41:35;4.77;;;2.83;;
7575;SDS011;3829;50.798;4.358;2023-09-18T14:44:02;5.37;;;2.50;;
7575;SDS011;3829;50.798;4.358;2023-09-18T14:46:29;6.87;;;2.90;;
7575;SDS011;3829;50.798;4.358;2023-09-18T14:48:58;10.00;;;3.30;;
7575;SDS011;3829;50.798;4.358;2023-09-18T14:51:24;4.93;;;2.90;;
7575;SDS011;3829;50.798;4.358;2023-09-18T14:53:50;10.00;;;3.43;;
7575;SDS011;3829;50.798;4.358;2023-09-18T14:56:15;2.73;;;2.50;;
7575;SDS011;3829;50.798;4.358;2023-09-18T14:58:41;4.53;;;2.90;;
7575;SDS011;3829;50.798;4.358;2023-09-18T15:01:08;5.27;;;3.03;;
7575;SDS011;3829;50.798;4.358;2023-09-18T15:03:35;2.80;;;2.50;;
7575;SDS011;3829;50.798;4.358;2023-09-18T15:06:00;3.03;;;1.97;;
7575;SDS011;3829;50.798;4.358;2023-09-18T15:08:26;4.07;;;2.40;;
7575;SDS011;3829;50.798;4.358;2023-09-18T15:10:52;3.77;;;2.60;;
7575;SDS011;3829;50.798;4.358;2023-09-18T15:13:18;3.33;;;2.50;;
7575;SDS011;3829;50.798;4.358;2023-09-18T15:15:44;3.80;;;2.57;;
7575;SDS011;3829;50.798;4.358;2023-09-18T15:18:11;5.83;;;2.43;;
7575;SDS011;3829;50.798;4.358;2023-09-18T15:20:36;4.57;;;2.63;;
7575;SDS011;3829;50.798;4.358;2023-09-18T15:23:03;3.30;;;2.17;;
7575;SDS011;3829;50.798;4.358;2023-09-18T15:25:30;3.17;;;1.73;;
7575;SDS011;3829;50.798;4.358;2023-09-18T15:27:57;4.87;;;2.00;;